createdAt,value
2018-03-25T00:01:09.510Z,93913.18
2018-03-25T00:03:43.542Z,93914.70
2018-03-25T00:06:16.789Z,93917.34
2018-03-25T00:08:50.071Z,93921.72
2018-03-25T00:11:23.327Z,93917.05
2018-03-25T00:13:56.606Z,93915.52
2018-03-25T01:47:35.044Z,93936.00
2018-03-25T01:50:09.056Z,93935.48
2018-03-25T01:52:43.117Z,93941.03
2018-03-25T01:55:17.906Z,93936.55
2018-03-25T01:57:51.201Z,93932.89
2018-03-25T02:00:24.433Z,93931.37
2018-03-25T02:02:57.698Z,93924.95
2018-03-25T02:05:31.707Z,93929.91
2018-03-25T02:08:05.760Z,93933.15
2018-03-25T02:10:38.996Z,93935.14
2018-03-25T02:13:13.045Z,93938.98
2018-03-25T02:15:46.294Z,93938.05
2018-03-25T02:18:19.561Z,93942.06
2018-03-25T02:20:52.837Z,93946.42
2018-03-25T02:23:26.078Z,93944.39
2018-03-25T02:25:59.355Z,93954.42
2018-03-25T02:28:32.589Z,93951.58
2018-03-25T02:31:05.860Z,93949.09
2018-03-25T02:33:39.130Z,93950.91
2018-03-25T02:36:12.386Z,93952.73
2018-03-25T02:38:45.633Z,93956.08
2018-03-25T02:41:18.915Z,93957.08
2018-03-25T02:43:52.171Z,93960.73
2018-03-25T02:46:25.449Z,93964.17
2018-03-25T02:48:59.448Z,93970.26
2018-03-25T02:51:33.578Z,93979.17
2018-03-25T02:54:06.835Z,93977.45
2018-03-25T02:56:40.093Z,93977.13
2018-03-25T02:59:13.356Z,93978.86
2018-03-25T03:01:47.389Z,93975.41
2018-03-25T03:04:20.636Z,93973.78
2018-03-25T03:06:53.892Z,93974.55
2018-03-25T03:09:27.170Z,93972.80
2018-03-25T03:12:00.417Z,93971.02
2018-03-25T03:14:34.260Z,93972.21
2018-03-25T03:17:07.493Z,93971.48
2018-03-25T03:19:41.533Z,93971.83
2018-03-25T03:22:15.553Z,93975.66
2018-03-25T03:24:49.582Z,93981.41
2018-03-25T03:27:22.842Z,93975.38
2018-03-25T03:29:56.101Z,93979.23
2018-03-25T03:32:29.361Z,93983.49
2018-03-25T03:35:02.641Z,93983.02
2018-03-25T03:37:36.646Z,93993.87
2018-03-25T03:40:10.679Z,93991.99
2018-03-25T03:42:43.930Z,93997.26
2018-03-25T03:45:17.214Z,93998.27
2018-03-25T03:47:50.456Z,93999.88
2018-03-25T03:50:23.717Z,94002.50
2018-03-25T03:52:56.965Z,94000.66
2018-03-25T03:55:30.235Z,94001.52
2018-03-25T03:58:03.478Z,93996.59
2018-03-25T04:00:36.765Z,94003.73
2018-03-25T04:03:10.006Z,94008.98
2018-03-25T04:05:44.046Z,94008.36
2018-03-25T04:08:17.293Z,94005.09
2018-03-25T04:10:50.565Z,94005.29
2018-03-25T04:13:23.809Z,94008.08
2018-03-25T04:15:57.838Z,94002.37
2018-03-25T04:18:31.081Z,94014.53
2018-03-25T04:21:04.353Z,94016.13
2018-03-25T04:23:37.602Z,94008.48
2018-03-25T04:26:11.640Z,94011.31
2018-03-25T04:28:44.914Z,94005.73
2018-03-25T04:31:18.193Z,94003.30
2018-03-25T04:33:52.230Z,94004.11
2018-03-25T04:36:25.502Z,94001.98
2018-03-25T04:38:59.509Z,93998.44
2018-03-25T04:41:32.797Z,94003.70
2018-03-25T04:44:06.042Z,94007.15
2018-03-25T04:46:39.323Z,94013.39
2018-03-25T04:49:12.564Z,94007.97
2018-03-25T04:51:45.845Z,94005.53
2018-03-25T04:54:19.090Z,94009.76
2018-03-25T04:56:52.374Z,94007.12
2018-03-25T04:59:25.659Z,94006.00
2018-03-25T05:01:58.893Z,94011.86
2018-03-25T05:04:32.177Z,94013.94
2018-03-25T05:07:05.437Z,94011.87
2018-03-25T05:09:39.470Z,94016.59
2018-03-25T05:12:12.732Z,94020.89
2018-03-25T05:14:46.782Z,94021.58
2018-03-25T05:17:20.040Z,94022.67
2018-03-25T05:19:53.289Z,94017.82
2018-03-25T05:22:26.556Z,94025.18
2018-03-25T05:24:59.810Z,94027.81
2018-03-25T05:27:33.086Z,94029.34
2018-03-25T05:30:06.352Z,94033.52
2018-03-25T05:32:39.616Z,94032.39
2018-03-25T05:35:12.853Z,94039.02
2018-03-25T05:37:46.132Z,94037.70
2018-03-25T05:40:19.373Z,94038.43
2018-03-25T05:42:52.651Z,94043.06
2018-03-25T05:45:25.894Z,94039.90
2018-03-25T05:47:59.930Z,94040.87
2018-03-25T05:50:33.199Z,94043.19
2018-03-25T05:53:06.440Z,94047.28
2018-03-25T05:55:39.713Z,94052.14
2018-03-25T05:58:12.982Z,94051.64
2018-03-25T06:00:46.224Z,94054.17
2018-03-25T06:03:19.489Z,94053.77
2018-03-25T06:05:52.738Z,94057.34
2018-03-25T06:08:26.006Z,94054.59
2018-03-25T06:10:59.260Z,94053.62
2018-03-25T06:13:32.518Z,94058.78
2018-03-25T06:16:05.774Z,94054.16
2018-03-25T06:18:39.044Z,94061.02
2018-03-25T06:21:12.290Z,94055.57
2018-03-25T06:23:45.553Z,94058.73
2018-03-25T06:26:18.829Z,94054.38
2018-03-25T06:28:52.078Z,94064.84
2018-03-25T06:31:26.126Z,94068.55
2018-03-25T06:33:59.382Z,94069.17
2018-03-25T06:36:32.661Z,94073.37
2018-03-25T06:39:05.902Z,94072.11
2018-03-25T06:41:39.184Z,94075.69
2018-03-25T06:44:13.189Z,94077.03
2018-03-25T06:46:47.223Z,94074.68
2018-03-25T06:49:20.473Z,94081.83
2018-03-25T06:51:53.742Z,94076.71
2018-03-25T06:54:26.984Z,94089.81
2018-03-25T06:57:01.022Z,94101.13
2018-03-25T06:59:34.443Z,94093.03
2018-03-25T07:02:07.543Z,94094.28
2018-03-25T07:04:40.802Z,94095.94
2018-03-25T07:07:19.622Z,94106.12
2018-03-25T07:09:52.872Z,94101.30
2018-03-25T07:12:26.133Z,94105.77
2018-03-25T07:14:59.413Z,94107.77
2018-03-25T07:17:32.674Z,94109.63
2018-03-25T07:20:06.715Z,94108.36
2018-03-25T07:22:39.953Z,94111.12
2018-03-25T07:25:13.229Z,94117.32
2018-03-25T07:27:46.481Z,94119.86
2018-03-25T07:30:20.504Z,94115.22
2018-03-25T07:32:53.780Z,94121.14
2018-03-25T07:35:27.053Z,94122.27
2018-03-25T07:38:03.391Z,94129.48
2018-03-25T07:40:36.643Z,94138.73
2018-03-25T07:43:09.909Z,94133.52
2018-03-25T07:45:43.918Z,94137.30
2018-03-25T07:48:17.196Z,94143.12
2018-03-25T07:50:50.456Z,94147.30
2018-03-25T07:53:23.737Z,94151.81
2018-03-25T07:55:57.017Z,94148.67
2018-03-25T07:58:30.286Z,94154.56
2018-03-25T08:01:03.546Z,94153.05
2018-03-25T08:03:36.796Z,94159.01
2018-03-25T08:06:10.069Z,94163.30
2018-03-25T08:08:43.314Z,94162.00
2018-03-25T08:11:16.588Z,94166.42
2018-03-25T08:13:49.836Z,94160.47
2018-03-25T08:16:23.117Z,94167.13
2018-03-25T08:18:56.366Z,94168.19
2018-03-25T08:21:29.684Z,94178.71
2018-03-25T08:24:03.653Z,94181.61
2018-03-25T08:26:37.692Z,94173.11
2018-03-25T08:29:10.937Z,94174.69
2018-03-25T08:31:44.201Z,94176.02
2018-03-25T08:34:17.448Z,94177.17
2018-03-25T08:36:51.486Z,94181.55
2018-03-25T08:39:24.734Z,94178.73
2018-03-25T08:41:58.013Z,94176.25
2018-03-25T08:44:31.260Z,94185.30
2018-03-25T08:47:04.543Z,94185.31
2018-03-25T08:49:37.810Z,94174.00
2018-03-25T08:52:11.054Z,94175.12
2018-03-25T08:54:44.330Z,94174.26
2018-03-25T08:57:17.609Z,94175.90
2018-03-25T08:59:51.011Z,94176.34
2018-03-25T09:02:25.230Z,94182.96
2018-03-25T09:04:58.680Z,94178.60
2018-03-25T09:07:32.011Z,94179.77
2018-03-25T09:10:06.074Z,94179.77
2018-03-25T09:12:39.330Z,94176.22
2018-03-25T09:15:12.725Z,94181.86
2018-03-25T09:17:46.069Z,94186.03
2018-03-25T09:20:19.545Z,94180.17
2018-03-25T09:22:52.903Z,94185.37
2018-03-25T09:25:26.231Z,94178.26
2018-03-25T09:27:59.562Z,94186.33
2018-03-25T09:30:32.922Z,94187.85
2018-03-25T09:33:06.446Z,94190.00
2018-03-25T09:35:39.725Z,94192.58
2018-03-25T09:38:13.101Z,94194.20
2018-03-25T09:40:46.498Z,94189.69
2018-03-25T09:43:19.802Z,94187.35
2018-03-25T09:45:53.072Z,94187.28
2018-03-25T09:48:26.440Z,94187.59
2018-03-25T09:50:59.727Z,94189.33
2018-03-25T09:53:32.990Z,94194.41
2018-03-25T09:56:06.232Z,94193.95
2018-03-25T09:58:39.581Z,94195.88
2018-03-25T10:04:13.647Z,94193.44
2018-03-25T10:06:46.882Z,94198.94
2018-03-25T10:09:20.161Z,94197.66
2018-03-25T10:11:54.183Z,94200.34
2018-03-25T10:14:27.462Z,94201.58
2018-03-25T10:17:02.413Z,94208.53
2018-03-25T10:19:35.690Z,94199.81
2018-03-25T10:22:09.732Z,94204.59
2018-03-25T10:24:43.008Z,94204.59
2018-03-25T10:27:17.037Z,94206.84
2018-03-25T10:29:50.291Z,94204.94
2018-03-25T10:32:23.562Z,94199.64
2018-03-25T10:34:56.830Z,94198.11
2018-03-25T10:37:30.087Z,94200.28
2018-03-25T10:40:04.109Z,94201.12
2018-03-25T10:42:38.138Z,94202.23
2018-03-25T10:45:11.384Z,94201.37
2018-03-25T10:47:44.678Z,94202.61
2018-03-25T10:50:17.921Z,94201.98
2018-03-25T10:52:51.191Z,94195.39
2018-03-25T10:55:25.218Z,94203.32
2018-03-25T10:57:58.493Z,94206.09
2018-03-25T11:00:31.738Z,94200.17
2018-03-25T11:03:05.193Z,94201.91
2018-03-25T11:05:38.564Z,94202.82
2018-03-25T11:08:12.759Z,94213.95
2018-03-25T11:10:46.021Z,94205.48
2018-03-25T11:13:19.314Z,94202.42
2018-03-25T11:15:52.560Z,94205.45
2018-03-25T11:18:25.850Z,94200.87
2018-03-25T11:20:59.121Z,94198.00
2018-03-25T11:23:33.134Z,94198.00
2018-03-25T11:26:06.398Z,94197.70
2018-03-25T11:28:39.638Z,94191.98
2018-03-25T11:31:12.909Z,94212.78
2018-03-25T11:33:46.166Z,94199.73
2018-03-25T11:36:19.471Z,94192.48
2018-03-25T11:38:52.727Z,94198.61
2018-03-25T11:41:25.989Z,94196.77
2018-03-25T11:43:59.243Z,94196.34
2018-03-25T11:46:32.502Z,94206.42
2018-03-25T11:49:05.753Z,94198.86
2018-03-25T11:51:39.033Z,94197.72
2018-03-25T11:54:12.280Z,94196.77
2018-03-25T11:56:45.554Z,94197.16
2018-03-25T11:59:18.820Z,94198.49
2018-03-25T12:01:52.093Z,94196.09
2018-03-25T12:04:26.103Z,94192.70
2018-03-25T12:06:59.378Z,94189.38
2018-03-25T12:09:32.617Z,94196.42
2018-03-25T12:12:05.896Z,94184.75
2018-03-25T12:14:39.153Z,94188.79
2018-03-25T12:17:12.428Z,94186.70
2018-03-25T12:19:45.718Z,94180.19
2018-03-25T12:22:18.998Z,94174.22
2018-03-25T12:24:52.250Z,94179.05
2018-03-25T12:27:26.296Z,94187.55
2018-03-25T12:29:59.545Z,94184.15
2018-03-25T12:32:32.821Z,94172.41
2018-03-25T12:35:06.078Z,94174.80
2018-03-25T12:37:39.365Z,94181.14
2018-03-25T12:40:12.620Z,94166.66
2018-03-25T12:42:45.905Z,94167.30
2018-03-25T12:45:19.165Z,94167.02
2018-03-25T12:47:52.453Z,94163.46
2018-03-25T12:50:25.702Z,94164.55
2018-03-25T12:52:59.742Z,94166.83
2018-03-25T12:55:33.010Z,94157.05
2018-03-25T12:58:06.278Z,94167.53
2018-03-25T13:00:39.565Z,94157.05
2018-03-25T13:03:12.821Z,94158.45
2018-03-25T13:05:46.097Z,94168.87
2018-03-25T13:08:19.376Z,94158.27
2018-03-25T13:10:52.657Z,94156.45
2018-03-25T13:13:25.906Z,94155.36
2018-03-25T13:15:59.182Z,94170.44
2018-03-25T13:18:32.433Z,94165.41
2018-03-25T13:21:05.712Z,94168.72
2018-03-25T13:23:38.978Z,94159.55
2018-03-25T13:26:12.263Z,94159.63
2018-03-25T13:28:45.521Z,94157.95
2018-03-25T13:31:19.603Z,94157.77
2018-03-25T13:33:52.860Z,94153.14
2018-03-25T13:36:26.149Z,94160.34
2018-03-25T13:38:59.405Z,94151.55
2018-03-25T13:41:32.682Z,94150.05
2018-03-25T13:44:05.939Z,94146.98
2018-03-25T13:46:39.219Z,94149.44
2018-03-25T13:49:12.486Z,94145.27
2018-03-25T13:51:46.544Z,94163.17
2018-03-25T13:54:19.818Z,94163.52
2018-03-25T13:56:53.085Z,94154.39
2018-03-25T13:59:26.355Z,94147.59
2018-03-25T14:01:59.662Z,94141.22
2018-03-25T14:04:32.915Z,94148.51
2018-03-25T14:07:06.193Z,94143.45
2018-03-25T14:09:39.477Z,94140.37
2018-03-25T14:12:12.743Z,94144.92
2018-03-25T14:14:46.022Z,94131.36
2018-03-25T14:17:19.292Z,94144.07
2018-03-25T14:19:52.561Z,94141.36
2018-03-25T14:22:25.842Z,94132.30
2018-03-25T14:24:59.108Z,94142.98
2018-03-25T14:27:33.088Z,94137.84
2018-03-25T14:30:06.386Z,94145.65
2018-03-25T14:32:39.630Z,94136.61
2018-03-25T14:35:13.651Z,94138.49
2018-03-25T14:37:46.933Z,94137.02
2018-03-25T14:40:20.987Z,94134.13
2018-03-25T14:42:54.254Z,94137.66
2018-03-25T14:45:27.506Z,94134.06
2018-03-25T14:48:00.793Z,94132.45
2018-03-25T14:50:34.089Z,94126.03
2018-03-25T14:53:07.368Z,94127.28
2018-03-25T14:55:40.626Z,94121.68
2018-03-25T14:58:13.905Z,94128.58
2018-03-25T15:00:47.169Z,94138.26
2018-03-25T15:04:23.384Z,94134.41
2018-03-25T15:06:57.400Z,94135.31
2018-03-25T15:09:30.682Z,94134.86
2018-03-25T15:12:03.943Z,94137.28
2018-03-25T15:14:37.233Z,94136.23
2018-03-25T15:17:10.501Z,94142.53
2018-03-25T15:19:43.789Z,94131.24
2018-03-25T15:22:17.057Z,94137.86
2018-03-25T15:24:50.329Z,94138.59
2018-03-25T15:27:24.351Z,94135.23
2018-03-25T15:29:58.402Z,94130.21
2018-03-25T15:32:31.648Z,94132.37
2018-03-25T15:35:04.935Z,94134.89
2018-03-25T15:37:38.966Z,94128.84
2018-03-25T15:40:13.005Z,94135.92
2018-03-25T15:42:46.261Z,94130.01
2018-03-25T15:45:20.309Z,94132.03
2018-03-25T15:47:53.588Z,94131.89
2018-03-25T15:50:26.870Z,94134.23
2018-03-25T15:53:00.913Z,94139.61
2018-03-25T15:55:34.201Z,94133.71
2018-03-25T15:58:07.486Z,94137.39
2018-03-25T16:00:40.750Z,94129.06
2018-03-25T16:03:14.798Z,94133.55
2018-03-25T16:05:48.053Z,94135.30
2018-03-25T16:08:21.366Z,94143.64
2018-03-25T16:10:55.397Z,94133.75
2018-03-25T16:13:28.687Z,94137.61
2018-03-25T16:16:01.962Z,94139.16
2018-03-25T16:18:36.010Z,94136.69
2018-03-25T16:21:09.279Z,94147.49
2018-03-25T16:23:42.569Z,94147.80
2018-03-25T16:26:15.822Z,94145.91
2018-03-25T16:28:49.100Z,94148.08
2018-03-25T16:31:22.363Z,94140.44
2018-03-25T16:33:55.657Z,94149.05
2018-03-25T16:36:28.992Z,94146.59
2018-03-25T16:39:04.023Z,94148.56
2018-03-25T16:41:37.315Z,94150.20
2018-03-25T16:44:13.434Z,94159.95
2018-03-25T16:46:46.698Z,94170.00
2018-03-25T16:49:19.989Z,94167.57
2018-03-25T16:51:53.252Z,94174.77
2018-03-25T16:54:26.528Z,94174.31
2018-03-25T16:56:59.803Z,94172.83
2018-03-25T16:59:33.089Z,94180.75
2018-03-25T17:02:06.373Z,94183.25
2018-03-25T17:04:39.674Z,94181.16
2018-03-25T17:07:13.706Z,94183.31
2018-03-25T17:09:47.062Z,94184.89
2018-03-25T17:12:20.326Z,94197.77
2018-03-25T17:14:53.626Z,94195.05
2018-03-25T17:17:26.922Z,94203.98
2018-03-25T17:20:00.189Z,94208.43
2018-03-25T17:22:33.477Z,94214.22
2018-03-25T17:25:06.767Z,94226.14
2018-03-25T17:27:40.052Z,94229.66
2018-03-25T17:30:13.317Z,94229.72
2018-03-25T17:32:47.652Z,94232.31
2018-03-25T17:35:21.075Z,94238.14
2018-03-25T17:37:54.564Z,94237.37
2018-03-25T17:40:27.971Z,94242.30
2018-03-25T17:43:01.340Z,94239.89
2018-03-25T17:45:34.812Z,94246.09
2018-03-25T17:48:08.191Z,94251.30
2018-03-25T17:50:41.581Z,94246.29
2018-03-25T17:53:14.984Z,94247.68
2018-03-25T17:55:48.459Z,94250.00
2018-03-25T17:58:21.901Z,94256.16
2018-03-25T18:00:55.331Z,94255.17
2018-03-25T18:03:28.853Z,94256.09
2018-03-25T18:06:02.298Z,94259.58
2018-03-25T18:08:35.782Z,94260.97
2018-03-25T18:11:09.589Z,94264.36
2018-03-25T18:13:43.013Z,94271.20
2018-03-25T18:16:17.150Z,94269.93
2018-03-25T18:18:50.607Z,94271.90
2018-03-25T18:21:23.977Z,94276.94
2018-03-25T18:23:57.408Z,94281.45
2018-03-25T18:26:30.784Z,94288.12
2018-03-25T18:29:04.215Z,94279.63
2018-03-25T18:31:38.262Z,94288.27
2018-03-25T18:34:11.542Z,94286.23
2018-03-25T18:36:45.569Z,94288.20
2018-03-25T18:39:18.858Z,94291.38
2018-03-25T18:41:52.111Z,94300.02
2018-03-25T18:44:25.393Z,94298.80
2018-03-25T18:46:58.646Z,94304.77
2018-03-25T18:49:31.935Z,94306.41
2018-03-25T18:52:05.228Z,94313.75
2018-03-25T18:54:38.514Z,94314.20
2018-03-25T18:57:11.783Z,94317.09
2018-03-25T18:59:45.073Z,94322.72
2018-03-25T19:02:18.465Z,94320.87
2018-03-25T19:04:52.540Z,94319.54
2018-03-25T19:07:25.798Z,94324.58
2018-03-25T19:09:59.855Z,94326.42
2018-03-25T19:12:33.115Z,94325.05
2018-03-25T19:15:06.402Z,94321.39
2018-03-25T19:17:40.467Z,94327.64
2018-03-25T19:20:13.945Z,94317.00
2018-03-25T19:22:47.262Z,94322.56
2018-03-25T19:25:20.535Z,94318.38
2018-03-25T19:27:53.815Z,94324.64
2018-03-25T19:30:27.079Z,94320.46
2018-03-25T19:33:01.123Z,94324.69
2018-03-25T19:35:34.418Z,94323.37
2018-03-25T19:38:19.338Z,94324.86
2018-03-25T19:40:52.629Z,94324.38
2018-03-25T19:43:25.901Z,94326.34
2018-03-25T19:45:59.168Z,94326.55
2018-03-25T19:48:32.786Z,94329.66
2018-03-25T19:51:06.138Z,94333.06
2018-03-25T19:53:40.185Z,94325.63
2018-03-25T19:56:13.482Z,94325.88
2018-03-25T19:58:46.795Z,94328.35
2018-03-25T20:01:20.067Z,94331.88
2018-03-25T20:03:53.359Z,94332.80
2018-03-25T20:06:26.647Z,94326.08
2018-03-25T20:08:59.963Z,94331.33
2018-03-25T20:11:33.193Z,94331.75
2018-03-25T20:14:06.457Z,94332.72
2018-03-25T20:16:39.757Z,94329.66
2018-03-25T20:19:13.030Z,94335.31
2018-03-25T20:21:46.318Z,94328.96
2018-03-25T20:24:19.572Z,94333.80
2018-03-25T20:26:52.872Z,94333.95
2018-03-25T20:29:26.906Z,94332.22
2018-03-25T20:32:00.317Z,94332.38
2018-03-25T20:34:33.667Z,94339.77
2018-03-25T20:37:07.091Z,94343.34
2018-03-25T20:39:40.358Z,94345.56
2018-03-25T20:42:13.648Z,94339.47
2018-03-25T20:44:47.718Z,94337.36
2018-03-25T20:47:20.989Z,94347.73
2018-03-25T20:49:54.247Z,94349.09
2018-03-25T20:52:27.534Z,94353.50
2018-03-25T20:55:00.797Z,94347.70
2018-03-25T20:57:34.065Z,94352.50
2018-03-25T21:00:07.353Z,94345.45
2018-03-25T21:02:40.818Z,94353.03
2018-03-25T21:05:14.144Z,94351.21
2018-03-25T21:07:47.603Z,94354.20
2018-03-25T21:10:20.910Z,94349.02
2018-03-25T21:12:54.201Z,94355.41
2018-03-25T21:15:27.455Z,94357.98
2018-03-25T21:18:00.737Z,94358.42
2018-03-25T21:20:33.997Z,94355.48
2018-03-25T21:23:08.042Z,94358.17
2018-03-25T21:25:41.296Z,94360.45
2018-03-25T21:28:16.266Z,94363.53
2018-03-25T21:30:49.514Z,94362.23
2018-03-25T21:33:22.791Z,94365.32
2018-03-25T21:35:56.052Z,94360.52
2018-03-25T21:38:29.323Z,94363.91
2018-03-25T21:41:02.597Z,94366.69
2018-03-25T21:43:36.637Z,94373.77
2018-03-25T21:46:09.895Z,94372.64
2018-03-25T21:48:43.247Z,94381.04
2018-03-25T21:51:16.506Z,94386.14
2018-03-25T21:53:50.670Z,94383.62
2018-03-25T21:56:23.913Z,94382.38
2018-03-25T21:58:57.969Z,94394.98
2018-03-25T22:01:31.218Z,94404.39
2018-03-25T22:04:05.257Z,94392.84
2018-03-25T22:06:38.501Z,94402.66
2018-03-25T22:09:11.783Z,94403.17
2018-03-25T22:11:45.058Z,94410.62
2018-03-25T22:14:18.344Z,94407.56
2018-03-25T22:16:51.593Z,94410.84
2018-03-25T22:19:24.869Z,94411.16
2018-03-25T22:21:58.130Z,94417.39
2018-03-25T22:24:31.408Z,94419.53
2018-03-25T22:27:04.691Z,94428.61
2018-03-25T22:29:37.941Z,94424.73
2018-03-25T22:32:11.272Z,94417.78
2018-03-25T22:34:44.462Z,94427.28
2018-03-25T22:37:18.497Z,94427.64
2018-03-25T22:39:51.749Z,94426.12
2018-03-25T22:42:25.029Z,94426.83
2018-03-25T22:44:58.288Z,94422.59
2018-03-25T22:47:31.553Z,94424.02
2018-03-25T22:50:04.801Z,94422.44
2018-03-25T22:52:38.077Z,94422.24
2018-03-25T22:55:11.327Z,94422.15
2018-03-25T22:57:45.361Z,94425.94
2018-03-25T23:00:18.633Z,94429.09
2018-03-25T23:02:52.677Z,94425.92
2018-03-25T23:05:25.922Z,94423.59
2018-03-25T23:07:59.206Z,94424.30
2018-03-25T23:10:32.449Z,94424.51
2018-03-25T23:13:05.731Z,94425.02
2018-03-25T23:15:38.986Z,94415.43
2018-03-25T23:18:12.252Z,94420.44
2018-03-25T23:20:45.508Z,94421.77
2018-03-25T23:23:18.805Z,94418.59
2018-03-25T23:25:52.055Z,94423.19
2018-03-25T23:28:25.324Z,94415.13
2018-03-25T23:30:58.588Z,94405.75
2018-03-25T23:33:31.858Z,94415.55
2018-03-25T23:36:05.150Z,94410.92
2018-03-25T23:38:38.388Z,94404.61
2018-03-25T23:41:11.660Z,94402.48
2018-03-25T23:43:44.917Z,94407.37
2018-03-25T23:46:18.194Z,94403.58
2018-03-25T23:48:51.471Z,94406.45
2018-03-25T23:51:24.713Z,94408.80
2018-03-25T23:53:57.970Z,94403.91
2018-03-25T23:56:31.225Z,94407.98
2018-03-25T23:59:04.496Z,94413.49
